Alpine, NJ

9:59 PM EDT on August 21, 2014 (GMT -0400)
Cresskill - Bergen County NJ | Change Station
CLOSE
Current Station
Personal Weather Station
Location: Cresskill, NJ
Elevation: 79 ft
Nearby Weather Stations

Elev 79 ft 40.95 °N, 73.97 °W | Updated 12 minutes ago

Mostly Cloudy
Mostly Cloudy
70.0 °F
Feels Like 70.0 °F
N
0.0
Wind Variable Wind from East

Today
High -- | Low -- °F
--% Chance of Precip.
Yesterday
High -- | Low -- °F
Precip. -- in
6:11 AM 7:45 PM
Waning Crescent, 11% visible
Pressure 30.02 in
Visibility 10.0 miles
Clouds Mostly Cloudy 4500 ft
Mostly Cloudy 10000 ft
Dew Point 62 °F
Humidity 77%
Rainfall 0.03 in
Snow Depth Not available.
UV 0 out of 12
Pollen 8.70 out of 12
Air Quality Not available.
Flu Activity Not available.
METAR KTEB 220151Z 16007KT 10SM BKN045 BKN100 23/17 A3002 RMK AO2 SLP164 LTG DSNT N CGICCCCA T02330167

More Conditions Fewer Conditions

Pressure 30.02 in
Visibility 10.0 miles
Clouds Mostly Cloudy 4500 ft
Mostly Cloudy 10000 ft
Dew Point 62 °F
Humidity 77%
Rainfall 0.03 in
Snow Depth Not available.
UV 0 out of 12
Pollen 8.70 out of 12
Air Quality Not available.
Flu Activity Not available.
METAR KTEB 220151Z 16007KT 10SM BKN045 BKN100 23/17 A3002 RMK AO2 SLP164 LTG DSNT N CGICCCCA T02330167

More Conditions Fewer Conditions

10-Day Weather Forecast

Almanac

Astronomy

Aug. 21, 2014 Rise Set
Actual Time 6:11 AM EDT 7:45 PM EDT
Civil Twilight 5:42 AM EDT 8:14 PM EDT
Nautical Twilight 5:07 AM EDT 8:49 PM EDT
Astronomical Twilight 4:30 AM EDT 9:26 PM EDT
Moon 2:38 AM EDT (8/21) 5:13 PM EDT (8/21)
Length of Visible Light 14h 31m
Length of Day
13h 33m
Tomorrow will be 2m 30s shorter.
Waning Crescent, 11% of the Moon is Illuminated
Today
Waning Crescent
Aug 25
New
Sep 2
First Quarter
Sep 8
Full
Sep 15
Last Quarter

Today's Extremes

State Highs State Lows

Community

WunderPhotos

Upload Photos

1,746,105 photos uploaded!

WunderBlogs® & News

Nearby

Snow Depth

Station Depth Elevation
No new snow has been reported.

Earthquake Activity

City Distance Mag. Time & Date
No recent earthquake activity has been reported nearby.
Minimum magnitude displayed is 2.5.

Coastal Water Temperatures

Place Temperature
Kings Point, NY 73.0 °F
Bridgeport, CT 75.0 °F

Nearby Weather Stations